Time;durP1;ratioP1;P1;durP2;ratioP2;P2;SDS_P1;SDS_P2;PMS_P1;PMS_P2;Temp;Humidity;BMP_temperature;BMP_pressure;BME280_temperature;BME280_humidity;BME280_pressure;Samples;Min_cycle;Max_cycle;Signal;HPM_P1;HPM_P2
2023/12/27 00:00:31;;;;;;;0.32;0.32;;;;;;;12.65;55.75;102230.88;5063935;28;20037;-73
2023/12/27 00:02:58;;;;;;;0.30;0.30;;;;;;;12.60;55.22;102219.84;5059758;28;20044;-74
2023/12/27 00:05:23;;;;;;;0.40;0.40;;;;;;;12.52;55.46;102230.00;5058703;28;20068;-72
2023/12/27 00:07:48;;;;;;;0.30;0.30;;;;;;;12.57;55.40;102219.44;5058358;28;20434;-73
2023/12/27 00:10:14;;;;;;;0.30;0.30;;;;;;;12.57;55.61;102228.34;5033270;28;20052;-74
2023/12/27 00:12:39;;;;;;;0.30;0.30;;;;;;;12.58;55.64;102234.59;5061153;28;20179;-73
2023/12/27 00:15:05;;;;;;;0.38;0.38;;;;;;;12.49;55.58;102228.53;5068762;28;20068;-72
2023/12/27 00:17:30;;;;;;;0.30;0.30;;;;;;;12.50;55.90;102229.38;5069727;28;20017;-72
2023/12/27 00:19:56;;;;;;;0.30;0.30;;;;;;;12.55;55.86;102218.81;5069019;28;20037;-72
2023/12/27 00:22:21;;;;;;;0.30;0.30;;;;;;;12.62;55.31;102223.16;5063639;28;20029;-72
2023/12/27 00:24:46;;;;;;;0.30;0.30;;;;;;;12.62;55.17;102225.06;5051971;28;20041;-73
2023/12/27 00:27:12;;;;;;;0.40;0.40;;;;;;;12.67;55.09;102226.09;5059085;28;20047;-75
2023/12/27 00:29:37;;;;;;;0.30;0.30;;;;;;;12.54;55.45;102214.47;5059865;28;20025;-74
2023/12/27 00:32:08;;;;;;;0.30;0.30;;;;;;;12.45;55.46;102211.13;5058950;28;20029;-72
2023/12/27 00:34:34;;;;;;;0.30;0.30;;;;;;;12.34;55.30;102215.22;5061710;28;20103;-72
2023/12/27 00:36:59;;;;;;;0.32;0.32;;;;;;;12.37;55.64;102216.69;5068790;28;20051;-73
2023/12/27 00:39:25;;;;;;;0.30;0.30;;;;;;;12.35;55.87;102219.59;5068776;28;20570;-73
2023/12/27 00:41:50;;;;;;;0.32;0.32;;;;;;;12.21;55.76;102219.75;5061239;28;20075;-72
2023/12/27 00:44:16;;;;;;;0.40;0.40;;;;;;;12.28;55.53;102213.34;5064040;28;20035;-73
2023/12/27 00:46:41;;;;;;;0.30;0.30;;;;;;;12.31;55.20;102215.66;5062249;28;20397;-73
2023/12/27 00:49:07;;;;;;;0.30;0.30;;;;;;;12.17;55.72;102202.31;5064793;28;20040;-72
2023/12/27 00:51:32;;;;;;;0.40;0.40;;;;;;;12.25;55.31;102204.84;5063595;28;20037;-73
2023/12/27 00:53:58;;;;;;;0.32;0.32;;;;;;;12.18;55.57;102206.69;5064849;28;20036;-73
2023/12/27 00:56:23;;;;;;;0.30;0.30;;;;;;;12.34;54.72;102203.63;5064846;28;20071;-72
2023/12/27 00:58:48;;;;;;;0.40;0.40;;;;;;;12.22;55.33;102199.88;5066559;28;20041;-73
2023/12/27 01:01:14;;;;;;;0.40;0.40;;;;;;;12.19;55.37;102208.34;5067274;28;20127;-73
2023/12/27 01:03:40;;;;;;;0.30;0.30;;;;;;;12.08;55.14;102209.78;5063202;28;20041;-72
2023/12/27 01:06:06;;;;;;;0.40;0.40;;;;;;;11.94;55.73;102208.06;5043288;28;20080;-75
2023/12/27 01:08:31;;;;;;;0.40;0.40;;;;;;;12.13;55.48;102198.38;5062799;28;20056;-70
2023/12/27 01:10:57;;;;;;;0.32;0.32;;;;;;;12.11;55.22;102190.50;5063883;28;20175;-73
2023/12/27 01:13:22;;;;;;;0.30;0.30;;;;;;;12.07;55.17;102189.22;5061110;28;20064;-73
2023/12/27 01:15:47;;;;;;;0.30;0.30;;;;;;;12.13;54.86;102193.81;5062400;28;20132;-72
2023/12/27 01:18:12;;;;;;;0.50;0.50;;;;;;;12.04;54.94;102195.03;5064482;28;20132;-72
2023/12/27 01:20:38;;;;;;;0.30;0.30;;;;;;;12.01;55.35;102200.81;5043115;28;20111;-71
2023/12/27 01:23:03;;;;;;;0.40;0.40;;;;;;;11.94;55.33;102199.13;5063599;28;20120;-74
2023/12/27 01:25:29;;;;;;;0.30;0.30;;;;;;;11.56;56.12;102201.38;5066052;28;20532;-74
2023/12/27 01:27:54;;;;;;;0.40;0.40;;;;;;;11.39;57.54;102197.34;5061161;28;20459;-74
2023/12/27 01:30:19;;;;;;;0.30;0.30;;;;;;;11.38;58.16;102195.69;5062135;28;20457;-72
2023/12/27 01:32:45;;;;;;;0.35;0.35;;;;;;;12.18;55.78;102198.59;5063243;28;20029;-73
2023/12/27 01:35:10;;;;;;;0.30;0.30;;;;;;;12.38;54.70;102203.00;5053399;28;20083;-72
2023/12/27 01:37:35;;;;;;;0.30;0.30;;;;;;;12.41;54.34;102211.72;5043824;28;20087;-72
2023/12/27 01:40:01;;;;;;;0.35;0.35;;;;;;;12.11;54.98;102209.34;5041101;28;20529;-74
2023/12/27 01:42:26;;;;;;;0.30;0.30;;;;;;;12.15;55.47;102202.53;5042933;28;20492;-72
2023/12/27 01:44:52;;;;;;;0.30;0.30;;;;;;;12.23;55.30;102214.97;5044711;28;20025;-73
2023/12/27 01:47:17;;;;;;;0.30;0.30;;;;;;;12.29;55.23;102214.19;5043672;28;20033;-73
2023/12/27 01:49:43;;;;;;;0.30;0.30;;;;;;;12.27;55.42;102214.38;5024615;28;20037;-73
2023/12/27 01:52:10;;;;;;;0.30;0.30;;;;;;;12.17;55.71;102213.09;5041216;28;20072;-72
2023/12/27 01:54:36;;;;;;;0.30;0.30;;;;;;;12.28;55.29;102205.25;5041519;28;20056;-73
2023/12/27 01:57:01;;;;;;;0.50;0.50;;;;;;;12.11;56.03;102216.59;5046128;28;20140;-73
2023/12/27 01:59:26;;;;;;;0.40;0.40;;;;;;;12.22;55.80;102210.66;5052181;28;20025;-73
2023/12/27 02:01:53;;;;;;;0.30;0.30;;;;;;;12.25;55.32;102221.00;5052014;28;20033;-73
2023/12/27 02:04:18;;;;;;;0.43;0.43;;;;;;;12.27;55.31;102222.47;5013453;28;20091;-74
2023/12/27 02:06:44;;;;;;;0.30;0.30;;;;;;;12.35;55.38;102235.78;5043668;28;20044;-71
2023/12/27 02:09:10;;;;;;;0.30;0.30;;;;;;;12.22;55.96;102246.53;5051950;28;20043;-72
2023/12/27 02:11:35;;;;;;;0.30;0.30;;;;;;;12.34;55.75;102235.97;5052436;28;20029;-72
2023/12/27 02:14:01;;;;;;;0.30;0.30;;;;;;;12.22;56.29;102229.50;5050636;28;20108;-71
2023/12/27 02:16:27;;;;;;;0.30;0.30;;;;;;;12.15;56.95;102218.69;5051945;28;20171;-73
2023/12/27 02:18:52;;;;;;;0.20;0.20;;;;;;;12.07;57.47;102218.88;5051840;28;20358;-73
2023/12/27 02:21:18;;;;;;;0.30;0.30;;;;;;;12.27;57.48;102213.53;5051834;28;20600;-72
2023/12/27 02:23:46;;;;;;;0.30;0.30;;;;;;;12.27;57.79;102209.00;5052198;28;20060;-72
2023/12/27 02:26:11;;;;;;;0.28;0.28;;;;;;;12.20;58.05;102204.63;5025438;28;20028;-72
2023/12/27 02:28:37;;;;;;;0.30;0.30;;;;;;;12.03;58.29;102214.06;5051555;28;20055;-73
2023/12/27 02:31:02;;;;;;;0.30;0.30;;;;;;;12.29;57.83;102204.22;5051323;28;20416;-72
2023/12/27 02:33:27;;;;;;;0.30;0.30;;;;;;;12.30;58.05;102189.72;5051625;28;20115;-71
2023/12/27 02:35:53;;;;;;;0.30;0.30;;;;;;;12.40;58.08;102189.34;5051116;28;20041;-73
2023/12/27 02:38:18;;;;;;;0.20;0.20;;;;;;;12.36;58.40;102188.09;5052314;28;20549;-72
2023/12/27 02:40:43;;;;;;;0.30;0.30;;;;;;;12.48;57.53;102181.03;5051351;28;20511;-73
2023/12/27 02:43:09;;;;;;;0.32;0.32;;;;;;;12.32;57.80;102190.34;5051526;28;20481;-71
2023/12/27 02:45:34;;;;;;;0.47;0.47;;;;;;;12.38;57.68;102179.78;5032948;28;20052;-72
2023/12/27 02:47:59;;;;;;;0.30;0.30;;;;;;;12.32;57.63;102167.97;5051115;28;20032;-72
2023/12/27 02:50:25;;;;;;;0.30;0.30;;;;;;;12.20;57.68;102165.03;5051749;28;20025;-73
2023/12/27 02:52:50;;;;;;;0.40;0.40;;;;;;;12.04;58.28;102169.94;5051029;28;20082;-74
2023/12/27 02:55:15;;;;;;;0.20;0.20;;;;;;;12.05;57.97;102161.66;5051445;28;20132;-76
2023/12/27 02:57:41;;;;;;;0.30;0.30;;;;;;;12.03;57.74;102158.34;5050898;28;20029;-72
2023/12/27 03:00:07;;;;;;;0.30;0.30;;;;;;;11.96;57.95;102151.28;5050671;28;20501;-72
2023/12/27 03:02:32;;;;;;;0.30;0.30;;;;;;;12.42;56.37;102154.94;5032600;28;20033;-72
2023/12/27 03:04:58;;;;;;;0.50;0.50;;;;;;;12.94;54.86;102138.75;5049983;28;20040;-73
2023/12/27 03:07:23;;;;;;;0.30;0.30;;;;;;;13.27;53.44;102149.50;5050553;28;20064;-72
2023/12/27 03:09:48;;;;;;;0.40;0.40;;;;;;;13.59;52.03;102127.00;5050736;28;20056;-72
2023/12/27 03:12:14;;;;;;;0.32;0.32;;;;;;;12.84;54.31;102126.72;5062882;28;20044;-72
2023/12/27 03:14:39;;;;;;;0.20;0.20;;;;;;;12.66;55.40;102127.34;5050929;28;20635;-72
2023/12/27 03:17:05;;;;;;;0.30;0.30;;;;;;;12.58;55.69;102132.94;5050476;28;20451;-72
2023/12/27 03:19:30;;;;;;;0.30;0.30;;;;;;;12.59;55.90;102137.31;5050303;28;20429;-70
2023/12/27 03:21:55;;;;;;;0.50;0.50;;;;;;;12.50;55.79;102132.31;5048580;28;20523;-72
2023/12/27 03:24:21;;;;;;;0.30;0.30;;;;;;;12.75;55.56;102138.75;5050358;28;20048;-72
2023/12/27 03:26:46;;;;;;;0.40;0.40;;;;;;;12.79;55.93;102121.13;5033027;28;20029;-71
2023/12/27 03:29:12;;;;;;;0.30;0.30;;;;;;;12.84;55.78;102119.44;5050152;28;20033;-71
2023/12/27 03:31:37;;;;;;;0.35;0.35;;;;;;;12.90;55.71;102121.31;5050243;28;20043;-71
2023/12/27 03:34:02;;;;;;;0.30;0.30;;;;;;;12.83;56.32;102135.84;5051471;28;20461;-73
2023/12/27 03:36:28;;;;;;;0.30;0.30;;;;;;;12.78;56.78;102141.03;5060399;28;20468;-71
2023/12/27 03:38:53;;;;;;;0.30;0.30;;;;;;;12.91;56.05;102141.03;5050250;28;20029;-71
2023/12/27 03:41:18;;;;;;;0.20;0.20;;;;;;;12.78;56.56;102130.22;5047130;28;20119;-71
2023/12/27 03:43:44;;;;;;;0.30;0.30;;;;;;;12.96;55.75;102127.75;5030032;28;20033;-71
2023/12/27 03:46:10;;;;;;;0.32;0.32;;;;;;;13.01;56.17;102127.97;5049002;28;20029;-71
2023/12/27 03:48:35;;;;;;;0.22;0.22;;;;;;;13.02;55.96;102125.03;5059534;28;20025;-71
2023/12/27 03:51:02;;;;;;;0.20;0.20;;;;;;;13.00;55.89;102115.50;5063882;28;20024;-71
2023/12/27 03:53:27;;;;;;;0.30;0.30;;;;;;;13.02;55.94;102116.94;5052778;28;20151;-71
2023/12/27 03:55:53;;;;;;;0.20;0.20;;;;;;;13.30;55.50;102122.13;5030899;28;20512;-72
2023/12/27 03:58:18;;;;;;;0.30;0.30;;;;;;;13.25;55.66;102113.00;5049662;28;20113;-72
2023/12/27 04:00:43;;;;;;;0.40;0.40;;;;;;;13.19;55.92;102111.94;5059352;28;20111;-72
2023/12/27 04:03:09;;;;;;;0.40;0.40;;;;;;;13.25;55.70;102110.28;5049882;28;20086;-72
2023/12/27 04:05:34;;;;;;;0.30;0.30;;;;;;;13.07;55.92;102119.84;5050219;28;20048;-72
2023/12/27 04:07:59;;;;;;;0.40;0.40;;;;;;;13.12;55.76;102114.69;5044298;28;20124;-72
2023/12/27 04:10:25;;;;;;;0.25;0.25;;;;;;;13.12;55.93;102119.25;5038893;28;20067;-72
2023/12/27 04:12:51;;;;;;;0.35;0.35;;;;;;;12.99;55.96;102120.03;5049521;28;20044;-72
2023/12/27 04:15:16;;;;;;;0.35;0.35;;;;;;;13.12;55.77;102113.84;5049503;28;20481;-72
2023/12/27 04:17:42;;;;;;;0.30;0.30;;;;;;;13.01;56.01;102109.06;5049955;28;20017;-72
2023/12/27 04:20:08;;;;;;;0.20;0.20;;;;;;;13.20;55.87;102109.06;5049505;28;20532;-71
2023/12/27 04:22:33;;;;;;;0.30;0.30;;;;;;;13.22;55.44;102108.84;5031645;28;20036;-71
2023/12/27 04:24:58;;;;;;;0.30;0.30;;;;;;;13.09;55.68;102103.44;5049235;28;20064;-72
2023/12/27 04:27:24;;;;;;;0.30;0.30;;;;;;;13.11;55.92;102094.13;5031237;28;20083;-71
2023/12/27 04:29:49;;;;;;;0.30;0.30;;;;;;;13.28;55.74;102093.66;5048984;28;20044;-72
2023/12/27 04:32:15;;;;;;;0.30;0.30;;;;;;;13.41;55.51;102091.75;5050010;28;20052;-71
2023/12/27 04:34:40;;;;;;;0.35;0.35;;;;;;;13.14;55.86;102090.16;5055530;28;20110;-71
2023/12/27 04:37:05;;;;;;;0.30;0.30;;;;;;;12.98;56.48;102093.28;5050976;28;20144;-72
2023/12/27 04:39:31;;;;;;;0.30;0.30;;;;;;;13.27;55.70;102082.03;5069227;28;20052;-72
2023/12/27 04:41:56;;;;;;;0.35;0.35;;;;;;;12.86;56.99;102092.25;5069092;28;20036;-72
2023/12/27 04:44:22;;;;;;;0.35;0.35;;;;;;;13.18;56.54;102076.06;5069852;28;20033;-71
2023/12/27 04:46:47;;;;;;;0.30;0.30;;;;;;;13.27;55.69;102076.63;5069179;28;20074;-71
2023/12/27 04:49:12;;;;;;;0.28;0.28;;;;;;;13.46;55.35;102073.03;5069281;28;20499;-71
2023/12/27 04:51:38;;;;;;;0.30;0.30;;;;;;;13.15;55.68;102073.75;5069440;28;20115;-72
2023/12/27 04:54:04;;;;;;;0.30;0.30;;;;;;;13.32;56.04;102071.44;5069424;28;20446;-72
2023/12/27 04:56:30;;;;;;;0.20;0.20;;;;;;;13.31;56.22;102053.56;5070128;28;20028;-71
2023/12/27 04:58:55;;;;;;;0.32;0.32;;;;;;;13.43;55.48;102059.97;5068997;28;20063;-71
2023/12/27 05:01:20;;;;;;;0.30;0.30;;;;;;;13.32;55.28;102055.22;5067412;28;20492;-71
2023/12/27 05:03:46;;;;;;;0.30;0.30;;;;;;;12.60;57.95;102044.56;5068713;28;20047;-71
2023/12/27 05:06:12;;;;;;;0.20;0.20;;;;;;;12.70;58.24;102050.38;5068718;28;20109;-71
2023/12/27 05:08:41;;;;;;;0.40;0.40;;;;;;;13.14;57.26;102039.72;5069107;28;20025;-71
2023/12/27 05:11:13;;;;;;;0.30;0.30;;;;;;;13.17;56.72;102039.28;5068790;28;20069;-72
2023/12/27 05:13:39;;;;;;;0.22;0.22;;;;;;;12.80;58.02;102037.28;5050050;28;20523;-71
2023/12/27 05:16:12;;;;;;;0.40;0.40;;;;;;;13.51;56.15;102021.91;5068997;28;20040;-72
2023/12/27 05:18:39;;;;;;;0.30;0.30;;;;;;;13.23;56.52;102014.16;5068626;28;20426;-72
2023/12/27 05:21:06;;;;;;;0.20;0.20;;;;;;;13.50;55.75;102014.88;5069080;28;20068;-72
2023/12/27 05:23:31;;;;;;;0.28;0.28;;;;;;;13.50;55.91;102012.16;5069567;28;20086;-72
2023/12/27 05:25:57;;;;;;;0.20;0.20;;;;;;;13.47;56.18;102014.44;5068968;28;20044;-72
2023/12/27 05:28:23;;;;;;;0.30;0.30;;;;;;;13.59;55.93;102018.13;5071233;28;20037;-72
2023/12/27 05:30:48;;;;;;;0.28;0.28;;;;;;;13.66;55.76;102018.94;5072330;28;20682;-71
2023/12/27 05:33:14;;;;;;;0.30;0.30;;;;;;;13.70;55.94;102014.75;5072694;28;20032;-72
2023/12/27 05:35:39;;;;;;;0.30;0.30;;;;;;;13.69;55.91;102013.91;5072672;28;20033;-72
2023/12/27 05:38:04;;;;;;;0.35;0.35;;;;;;;13.85;55.58;102007.16;5072441;28;20140;-72
2023/12/27 05:40:29;;;;;;;0.40;0.40;;;;;;;13.85;55.48;102004.47;5072382;28;20028;-72
2023/12/27 05:42:55;;;;;;;0.40;0.40;;;;;;;13.80;55.73;102006.97;5072355;28;20052;-72
2023/12/27 05:45:20;;;;;;;0.40;0.40;;;;;;;13.93;55.67;102006.91;5071815;28;20036;-72
2023/12/27 05:47:46;;;;;;;0.20;0.20;;;;;;;13.89;55.73;102008.38;5072786;28;20028;-72
2023/12/27 05:50:11;;;;;;;0.30;0.30;;;;;;;13.84;55.54;102013.59;5053507;28;20582;-72
2023/12/27 05:52:39;;;;;;;0.30;0.30;;;;;;;13.86;55.90;102004.25;5053640;28;20067;-72
2023/12/27 05:55:05;;;;;;;0.30;0.30;;;;;;;13.87;55.83;102005.91;5072296;28;20503;-72
2023/12/27 05:57:30;;;;;;;0.30;0.30;;;;;;;13.87;55.67;102002.38;5072138;28;20028;-72
2023/12/27 05:59:56;;;;;;;0.47;0.47;;;;;;;13.95;56.02;101999.41;5066285;28;20080;-73
2023/12/27 06:02:21;;;;;;;0.40;0.40;;;;;;;13.77;56.34;101985.81;5042114;28;20036;-74
2023/12/27 06:04:46;;;;;;;0.20;0.20;;;;;;;13.54;57.17;101977.44;5053073;28;20081;-71
2023/12/27 06:07:12;;;;;;;0.40;0.40;;;;;;;13.35;58.13;101979.19;5072022;28;20044;-71
2023/12/27 06:09:39;;;;;;;0.30;0.30;;;;;;;13.46;57.80;101975.84;5071842;28;20066;-72
2023/12/27 06:12:06;;;;;;;0.20;0.20;;;;;;;13.47;57.52;101973.94;5071819;28;20048;-71
2023/12/27 06:14:32;;;;;;;0.30;0.30;;;;;;;13.23;58.21;101964.72;5072376;28;20519;-71
2023/12/27 06:16:58;;;;;;;0.30;0.30;;;;;;;13.08;59.60;101956.91;5071671;28;20121;-72
2023/12/27 06:19:23;;;;;;;0.50;0.50;;;;;;;13.49;58.32;101959.19;5071881;28;20136;-72
2023/12/27 06:21:48;;;;;;;0.20;0.20;;;;;;;13.43;57.85;101970.00;5062995;28;20171;-71
2023/12/27 06:24:14;;;;;;;0.45;0.45;;;;;;;13.75;57.28;101959.03;5059238;28;20048;-71
2023/12/27 06:26:40;;;;;;;0.38;0.38;;;;;;;13.83;56.89;101960.63;5072351;28;20108;-73
2023/12/27 06:29:06;;;;;;;0.30;0.30;;;;;;;13.84;56.74;101957.69;5064862;28;20115;-71
2023/12/27 06:31:34;;;;;;;0.30;0.30;;;;;;;13.96;56.46;101949.69;5060133;28;20119;-71
2023/12/27 06:34:00;;;;;;;0.35;0.35;;;;;;;14.08;56.35;101947.94;5067501;28;20032;-71
2023/12/27 06:36:25;;;;;;;0.38;0.38;;;;;;;14.14;56.28;101947.06;5061441;28;20127;-71
2023/12/27 06:38:50;;;;;;;0.30;0.30;;;;;;;14.60;55.27;101950.16;5059201;28;20033;-71
2023/12/27 06:41:16;;;;;;;0.60;0.60;;;;;;;14.28;56.32;101947.78;5061552;28;20040;-71
2023/12/27 06:43:43;;;;;;;0.20;0.20;;;;;;;14.40;56.02;101946.84;5064400;28;20033;-71
2023/12/27 06:46:08;;;;;;;0.30;0.30;;;;;;;14.39;56.00;101934.38;5062166;28;20064;-71
2023/12/27 06:48:33;;;;;;;0.20;0.20;;;;;;;13.86;57.71;101934.00;5036292;28;20036;-71
2023/12/27 06:50:59;;;;;;;0.30;0.30;;;;;;;14.09;57.26;101934.19;5065037;28;20031;-71
2023/12/27 06:53:24;;;;;;;0.40;0.40;;;;;;;13.94;57.91;101931.03;5065535;28;20104;-71
2023/12/27 06:55:49;;;;;;;0.50;0.50;;;;;;;14.25;56.85;101934.72;5062312;28;20082;-70
2023/12/27 06:58:15;;;;;;;0.30;0.30;;;;;;;14.22;57.06;101940.53;5056172;28;20054;-70
2023/12/27 07:00:41;;;;;;;0.50;0.50;;;;;;;14.26;56.73;101929.06;5062710;28;20044;-71
2023/12/27 07:03:06;;;;;;;0.40;0.40;;;;;;;14.21;56.85;101914.56;5059817;28;20032;-71
2023/12/27 07:05:32;;;;;;;0.40;0.40;;;;;;;13.86;57.25;101917.78;5062046;28;20111;-73
2023/12/27 07:07:57;;;;;;;0.30;0.30;;;;;;;14.14;57.13;101917.31;5061454;28;20059;-71
2023/12/27 07:10:23;;;;;;;0.25;0.25;;;;;;;14.31;56.58;101912.22;5062030;28;20040;-71
2023/12/27 07:12:48;;;;;;;0.40;0.40;;;;;;;14.34;56.28;101907.19;5062393;28;20037;-71
2023/12/27 07:15:13;;;;;;;0.30;0.30;;;;;;;14.33;56.72;101902.00;5039667;28;20374;-71
2023/12/27 07:17:39;;;;;;;0.30;0.30;;;;;;;14.27;56.43;101903.66;5070324;28;20066;-71
2023/12/27 07:20:04;;;;;;;0.40;0.40;;;;;;;14.32;56.33;101893.06;5070434;28;20064;-71
2023/12/27 07:22:30;;;;;;;0.30;0.30;;;;;;;14.21;57.01;101893.75;5070448;28;20068;-71
2023/12/27 07:24:55;;;;;;;0.40;0.40;;;;;;;14.35;55.99;101880.97;5070180;28;20058;-72
2023/12/27 07:27:20;;;;;;;0.30;0.30;;;;;;;14.47;55.89;101881.84;5070207;28;20364;-72
2023/12/27 07:29:46;;;;;;;0.30;0.30;;;;;;;14.14;57.01;101882.19;5070831;28;20127;-72
2023/12/27 07:32:11;;;;;;;0.30;0.30;;;;;;;14.25;56.93;101881.44;5069130;28;20076;-72
2023/12/27 07:34:36;;;;;;;0.30;0.30;;;;;;;14.16;56.96;101863.88;5051102;28;20127;-72
2023/12/27 07:37:03;;;;;;;0.25;0.25;;;;;;;14.11;57.53;101869.13;5068315;28;20477;-72
2023/12/27 07:39:29;;;;;;;0.30;0.30;;;;;;;14.45;56.81;101862.31;5051914;28;20040;-72
2023/12/27 07:41:54;;;;;;;0.20;0.20;;;;;;;14.50;56.38;101866.03;5049653;28;20052;-72
2023/12/27 07:44:20;;;;;;;0.25;0.25;;;;;;;14.69;55.71;101856.84;5048389;28;20025;-72
2023/12/27 07:46:46;;;;;;;0.30;0.30;;;;;;;14.66;55.56;101854.56;5048132;28;20140;-71
2023/12/27 07:49:11;;;;;;;0.30;0.30;;;;;;;14.27;57.20;101848.78;5048685;28;20446;-72
2023/12/27 07:51:37;;;;;;;0.40;0.40;;;;;;;14.09;57.44;101847.72;5043204;28;20037;-72
2023/12/27 07:54:02;;;;;;;0.20;0.20;;;;;;;14.30;57.21;101845.66;5048724;28;20311;-70
2023/12/27 07:56:28;;;;;;;0.30;0.30;;;;;;;14.23;57.72;101839.47;5048678;28;20033;-71
2023/12/27 07:58:54;;;;;;;0.30;0.30;;;;;;;14.71;56.18;101838.50;5047220;28;20476;-71
2023/12/27 08:01:20;;;;;;;0.40;0.40;;;;;;;14.77;56.53;101831.34;5028998;28;20115;-71
2023/12/27 08:03:46;;;;;;;0.35;0.35;;;;;;;14.84;55.17;101834.78;5048252;28;20098;-72
2023/12/27 08:06:12;;;;;;;0.22;0.22;;;;;;;14.84;55.85;101835.59;5048580;28;20102;-72
2023/12/27 08:08:37;;;;;;;0.40;0.40;;;;;;;14.16;58.17;101828.72;5049016;28;20029;-72
2023/12/27 08:11:03;;;;;;;0.30;0.30;;;;;;;13.87;59.40;101832.97;5048459;28;20036;-72
2023/12/27 08:13:32;;;;;;;0.20;0.20;;;;;;;14.28;57.79;101828.84;5030013;28;20045;-71
2023/12/27 08:15:57;;;;;;;0.20;0.20;;;;;;;14.64;56.84;101826.91;5048096;28;20037;-73
2023/12/27 08:18:23;;;;;;;0.30;0.30;;;;;;;14.53;57.44;101825.00;5048304;28;20043;-71
2023/12/27 08:20:48;;;;;;;0.30;0.30;;;;;;;14.98;56.40;101820.84;5048775;28;20405;-71
2023/12/27 08:23:16;;;;;;;0.30;0.30;;;;;;;14.47;58.30;101822.34;5048591;28;20040;-71
2023/12/27 08:25:42;;;;;;;0.30;0.30;;;;;;;14.45;58.67;101827.16;5049536;28;20028;-72
2023/12/27 08:28:08;;;;;;;0.30;0.30;;;;;;;13.83;60.75;101820.13;5057500;28;20059;-72
2023/12/27 08:30:34;;;;;;;0.40;0.40;;;;;;;14.10;60.17;101813.41;5057549;28;20406;-71
2023/12/27 08:33:00;;;;;;;0.40;0.40;;;;;;;13.93;60.06;101820.44;5055669;28;20032;-71
2023/12/27 08:35:25;;;;;;;0.30;0.30;;;;;;;14.39;59.26;101815.38;5056802;28;20468;-73
2023/12/27 08:37:51;;;;;;;0.40;0.40;;;;;;;13.95;60.26;101810.25;5069291;28;20559;-72
2023/12/27 08:40:18;;;;;;;0.40;0.40;;;;;;;13.94;60.98;101812.13;5077518;28;20592;-72
2023/12/27 08:42:44;;;;;;;0.43;0.43;;;;;;;13.81;61.93;101811.41;5058717;28;20036;-72
2023/12/27 08:45:11;;;;;;;0.40;0.40;;;;;;;13.37;63.01;101807.03;5059293;28;20530;-72
2023/12/27 08:47:36;;;;;;;0.35;0.35;;;;;;;14.05;61.56;101795.16;5079935;28;20024;-72
2023/12/27 08:50:02;;;;;;;0.30;0.30;;;;;;;13.55;63.41;101781.94;5072835;28;20037;-72
2023/12/27 08:52:27;;;;;;;0.40;0.40;;;;;;;14.08;61.55;101796.59;5065127;28;20033;-72
2023/12/27 08:54:53;;;;;;;0.47;0.47;;;;;;;14.47;60.48;101792.59;5078876;28;20036;-72
2023/12/27 08:57:19;;;;;;;0.40;0.40;;;;;;;14.29;60.60;101795.34;5078681;28;20115;-71
2023/12/27 08:59:44;;;;;;;0.35;0.35;;;;;;;14.06;61.37;101775.19;5057817;28;20027;-71
2023/12/27 09:02:10;;;;;;;0.30;0.30;;;;;;;14.04;62.23;101776.47;5072691;28;20028;-71
2023/12/27 09:04:35;;;;;;;0.30;0.30;;;;;;;14.19;61.66;101779.59;5077242;28;20044;-72
2023/12/27 09:07:00;;;;;;;0.28;0.28;;;;;;;14.21;61.00;101774.78;5076356;28;20036;-72
2023/12/27 09:09:26;;;;;;;0.20;0.20;;;;;;;13.58;64.21;101768.03;5071723;28;20040;-72
2023/12/27 09:11:51;;;;;;;0.30;0.30;;;;;;;14.20;62.52;101766.91;5071958;28;20483;-72
2023/12/27 09:14:17;;;;;;;0.35;0.35;;;;;;;13.04;65.95;101763.25;5072139;28;20032;-72
2023/12/27 09:16:42;;;;;;;0.40;0.40;;;;;;;13.66;65.17;101759.63;5053385;28;20431;-72
2023/12/27 09:19:08;;;;;;;0.25;0.25;;;;;;;13.74;64.00;101759.31;5071768;28;20036;-71
2023/12/27 09:21:33;;;;;;;0.40;0.40;;;;;;;13.93;63.25;101750.19;5071705;28;20024;-71
2023/12/27 09:23:58;;;;;;;0.25;0.25;;;;;;;14.02;63.27;101752.38;5071430;28;20039;-71
2023/12/27 09:26:24;;;;;;;0.20;0.20;;;;;;;13.98;64.68;101753.88;5073164;28;20113;-71
2023/12/27 09:28:49;;;;;;;0.30;0.30;;;;;;;14.15;63.14;101747.88;5072336;28;20127;-72
2023/12/27 09:31:14;;;;;;;0.32;0.32;;;;;;;14.07;63.21;101730.88;5070913;28;20112;-71
2023/12/27 09:33:42;;;;;;;0.30;0.30;;;;;;;13.74;66.28;101727.72;5053325;28;20451;-71
2023/12/27 09:36:08;;;;;;;0.30;0.30;;;;;;;13.48;66.59;101724.50;5070456;28;20373;-72
2023/12/27 09:38:33;;;;;;;0.20;0.20;;;;;;;13.53;66.37;101719.22;5071666;28;20040;-71
2023/12/27 09:41:02;;;;;;;0.20;0.20;;;;;;;14.01;64.90;101714.75;5057953;28;20037;-72
2023/12/27 09:43:27;;;;;;;0.30;0.30;;;;;;;13.90;65.91;101710.09;5048827;28;20492;-72
2023/12/27 09:45:54;;;;;;;0.40;0.40;;;;;;;13.75;65.92;101712.34;5067650;28;20040;-73
2023/12/27 09:48:21;;;;;;;0.30;0.30;;;;;;;14.21;64.42;101709.13;5071268;28;20034;-73
2023/12/27 09:50:47;;;;;;;0.30;0.30;;;;;;;14.51;63.82;101702.69;5066985;28;20107;-72
2023/12/27 09:53:15;;;;;;;0.30;0.30;;;;;;;15.21;61.39;101692.84;5078008;28;20076;-72
2023/12/27 09:55:41;;;;;;;0.20;0.20;;;;;;;15.28;60.28;101685.41;5074632;28;20039;-72
2023/12/27 09:58:06;;;;;;;0.20;0.20;;;;;;;14.34;63.37;101693.56;5081418;28;20035;-73
2023/12/27 10:00:33;;;;;;;0.28;0.28;;;;;;;14.09;65.39;101672.03;5080515;28;20031;-72
2023/12/27 10:02:59;;;;;;;0.30;0.30;;;;;;;14.84;62.50;101672.41;5079016;28;20024;-73
2023/12/27 10:05:43;;;;;;;0.20;0.20;;;;;;;15.09;61.38;101672.22;5066414;28;20035;-71
2023/12/27 10:08:10;;;;;;;0.28;0.28;;;;;;;15.28;60.75;101666.44;5091487;28;20115;-73
2023/12/27 10:10:36;;;;;;;0.30;0.30;;;;;;;16.27;57.53;101668.03;5072390;28;20048;-72
2023/12/27 10:13:04;;;;;;;0.40;0.40;;;;;;;16.51;56.74;101656.03;5091286;28;20051;-72
2023/12/27 10:15:29;;;;;;;0.20;0.20;;;;;;;15.76;58.44;101650.75;5068339;28;20131;-71
2023/12/27 10:17:54;;;;;;;0.47;0.47;;;;;;;15.35;61.03;101659.00;5071434;28;20032;-72
2023/12/27 10:20:36;;;;;;;0.30;0.30;;;;;;;16.03;59.32;101653.75;5071367;28;20074;-72
2023/12/27 10:23:02;;;;;;;0.22;0.22;;;;;;;14.87;62.18;101653.00;5071120;28;20037;-71
2023/12/27 10:25:28;;;;;;;0.40;0.40;;;;;;;14.80;62.12;101639.59;5084539;28;20051;-71
2023/12/27 10:27:55;;;;;;;0.20;0.20;;;;;;;15.57;60.93;101637.59;5091426;28;20517;-72
2023/12/27 10:30:21;;;;;;;0.50;0.50;;;;;;;15.95;59.28;101631.59;5064835;28;20068;-73
2023/12/27 10:33:17;;;;;;;0.40;0.40;;;;;;;15.72;60.09;101624.38;5041204;28;20043;-71
2023/12/27 10:35:42;;;;;;;0.30;0.30;;;;;;;16.03;58.69;101623.09;5009458;28;20160;-71
2023/12/27 10:38:08;;;;;;;0.40;0.40;;;;;;;15.48;59.39;101604.66;4995523;28;20054;-71
2023/12/27 10:40:34;;;;;;;0.30;0.30;;;;;;;15.21;61.79;101608.91;4978937;28;20048;-72
2023/12/27 10:43:00;;;;;;;0.43;0.43;;;;;;;15.32;61.23;101597.22;4988660;28;20045;-72
2023/12/27 10:45:25;;;;;;;0.40;0.40;;;;;;;15.42;61.75;101593.94;4988482;28;20042;-72
2023/12/27 10:47:59;;;;;;;0.30;0.30;;;;;;;15.47;60.85;101594.03;4988525;28;20034;-73
2023/12/27 10:50:26;;;;;;;0.30;0.30;;;;;;;16.32;58.29;101594.88;4988988;28;20395;-73
2023/12/27 10:53:06;;;;;;;0.40;0.40;;;;;;;16.42;57.86;101592.34;4988426;28;20181;-72
2023/12/27 10:55:32;;;;;;;0.30;0.30;;;;;;;15.89;59.99;101581.06;4988316;28;20590;-71
2023/12/27 10:58:00;;;;;;;0.40;0.40;;;;;;;16.38;57.97;101580.34;4987726;28;20165;-72
2023/12/27 11:00:25;;;;;;;0.20;0.20;;;;;;;16.21;58.49;101583.03;4986631;28;20209;-72
2023/12/27 11:02:52;;;;;;;0.30;0.30;;;;;;;16.08;59.63;101580.63;4977548;28;20542;-72
2023/12/27 11:05:22;;;;;;;0.20;0.20;;;;;;;15.20;62.33;101582.88;4978119;28;20473;-73
2023/12/27 11:07:49;;;;;;;0.40;0.40;;;;;;;15.47;61.04;101573.19;4988272;28;20100;-75
2023/12/27 11:10:16;;;;;;;0.50;0.50;;;;;;;15.18;62.39;101568.75;4988254;28;20085;-74
2023/12/27 11:12:46;;;;;;;0.20;0.20;;;;;;;14.83;64.62;101557.94;5033856;28;20489;-73
2023/12/27 11:15:14;;;;;;;0.40;0.40;;;;;;;15.21;63.43;101538.50;5032109;28;20119;-73
2023/12/27 11:17:40;;;;;;;0.30;0.30;;;;;;;15.58;62.80;101533.59;5050259;28;20481;-72